Time;durP1;ratioP1;P1;durP2;ratioP2;P2;SDS_P1;SDS_P2;PMS_P1;PMS_P2;Temp;Humidity;BMP_temperature;BMP_pressure;BME280_temperature;BME280_humidity;BME280_pressure;Samples;Min_cycle;Max_cycle;Signal;HPM_P1;HPM_P2
2023/12/23 00:01:57;;;;;;;5.40;3.50;;;;;;;9.27;48.09;99279.85;107152;1255;25497;-54
2023/12/23 00:04:24;;;;;;;5.80;3.80;;;;;;;9.25;48.08;99276.63;107029;1256;25408;-54
2023/12/23 00:06:51;;;;;;;6.10;3.40;;;;;;;9.24;48.08;99281.84;106154;1257;1003145;-54
2023/12/23 00:09:18;;;;;;;4.90;3.30;;;;;;;9.23;48.09;99282.05;107124;1257;25337;-53
2023/12/23 00:11:45;;;;;;;5.60;3.90;;;;;;;9.22;48.08;99280.02;107172;1257;25337;-53
2023/12/23 00:14:12;;;;;;;5.80;3.50;;;;;;;9.21;48.02;99278.34;106423;1257;1002941;-54
2023/12/23 00:16:39;;;;;;;3.70;3.30;;;;;;;9.20;47.92;99280.80;107100;1256;25411;-54
2023/12/23 00:19:06;;;;;;;6.30;3.70;;;;;;;9.18;47.98;99281.56;107114;1256;23896;-53
2023/12/23 00:21:33;;;;;;;5.20;3.00;;;;;;;9.16;48.05;99281.30;106853;1270;25392;-53
2023/12/23 00:24:01;;;;;;;6.20;4.10;;;;;;;9.14;48.00;99280.35;107013;1257;23865;-53
2023/12/23 00:26:28;;;;;;;4.70;3.80;;;;;;;9.10;47.99;99279.98;106993;1260;25487;-54
2023/12/23 00:28:55;;;;;;;6.70;4.70;;;;;;;9.06;47.85;99281.52;106381;1259;1003820;-55
2023/12/23 00:31:22;;;;;;;6.50;4.60;;;;;;;9.02;47.77;99280.48;106725;1258;24297;-53
2023/12/23 00:33:49;;;;;;;5.40;3.80;;;;;;;8.98;47.82;99280.30;106602;1259;25494;-53
2023/12/23 00:36:17;;;;;;;4.30;3.60;;;;;;;8.94;47.90;99280.77;106782;1262;25350;-53
2023/12/23 00:38:44;;;;;;;6.70;4.30;;;;;;;8.91;47.98;99279.33;106826;1272;25634;-53
2023/12/23 00:41:11;;;;;;;6.10;4.00;;;;;;;8.88;48.10;99274.27;106852;1256;25363;-54
2023/12/23 00:43:38;;;;;;;5.90;4.00;;;;;;;8.85;48.36;99272.48;106555;1262;25414;-53
2023/12/23 00:46:07;;;;;;;7.00;4.90;;;;;;;8.84;48.44;99269.80;106722;1262;25366;-53
2023/12/23 00:48:34;;;;;;;6.30;4.80;;;;;;;8.82;48.37;99265.00;106703;1261;24846;-53
2023/12/23 00:51:01;;;;;;;6.30;3.80;;;;;;;8.84;48.34;99261.45;106727;1262;23273;-54
2023/12/23 00:53:28;;;;;;;6.40;4.00;;;;;;;8.96;48.00;99265.17;106668;1262;25513;-53
2023/12/23 00:55:55;;;;;;;5.80;4.20;;;;;;;8.97;47.86;99266.34;106685;1262;25343;-53
2023/12/23 00:58:22;;;;;;;6.00;4.20;;;;;;;8.97;48.09;99264.77;106752;1262;25504;-54
2023/12/23 01:00:49;;;;;;;7.50;4.60;;;;;;;8.98;48.05;99265.41;106791;1271;25335;-54
2023/12/23 01:03:16;;;;;;;7.10;4.30;;;;;;;8.98;47.93;99267.65;107012;1268;25385;-53
2023/12/23 01:05:43;;;;;;;6.80;4.20;;;;;;;8.98;47.95;99266.80;106849;1267;25446;-54
2023/12/23 01:08:11;;;;;;;7.40;4.20;;;;;;;8.98;47.81;99265.39;106892;1269;25337;-54
2023/12/23 01:10:38;;;;;;;6.00;4.00;;;;;;;8.99;47.83;99268.14;107220;1266;25548;-53
2023/12/23 01:13:05;;;;;;;7.20;4.20;;;;;;;8.99;47.78;99265.88;107134;1256;25430;-54
2023/12/23 01:15:32;;;;;;;6.60;4.00;;;;;;;8.99;47.64;99267.44;107065;1257;25340;-55
2023/12/23 01:17:59;;;;;;;6.40;4.00;;;;;;;8.99;47.57;99266.75;107107;1254;22607;-54
2023/12/23 01:20:27;;;;;;;6.20;4.00;;;;;;;8.98;47.49;99270.27;107148;1258;25319;-53
2023/12/23 01:22:54;;;;;;;4.50;3.90;;;;;;;8.97;47.35;99271.52;106879;1263;25460;-54
2023/12/23 01:25:22;;;;;;;4.30;3.20;;;;;;;8.96;47.40;99272.77;107030;1256;22547;-53
2023/12/23 01:27:49;;;;;;;4.90;3.10;;;;;;;8.96;47.27;99270.52;107204;1263;25366;-53
2023/12/23 01:30:16;;;;;;;4.30;3.20;;;;;;;8.95;47.18;99265.52;107277;1257;25414;-53
2023/12/23 01:32:43;;;;;;;4.50;2.60;;;;;;;8.96;47.20;99264.64;107061;1256;25388;-53
2023/12/23 01:35:11;;;;;;;4.50;2.90;;;;;;;8.95;47.04;99260.15;106060;1259;1003072;-54
2023/12/23 01:37:38;;;;;;;2.90;2.50;;;;;;;8.94;47.01;99259.52;107147;1260;25510;-53
2023/12/23 01:40:06;;;;;;;3.60;2.60;;;;;;;8.92;46.95;99258.39;107090;1257;25328;-54
2023/12/23 01:42:36;;;;;;;3.90;2.60;;;;;;;8.90;47.17;99261.92;107050;1257;22786;-54
2023/12/23 01:45:04;;;;;;;3.50;2.10;;;;;;;8.88;46.94;99262.34;106882;1259;22536;-54
2023/12/23 01:47:34;;;;;;;3.90;2.30;;;;;;;8.86;47.19;99261.70;106769;1259;25356;-55
2023/12/23 01:50:02;;;;;;;3.40;2.30;;;;;;;8.86;47.34;99261.23;106809;1258;24281;-54
2023/12/23 01:52:30;;;;;;;3.40;2.40;;;;;;;8.85;47.54;99257.45;107071;1251;22531;-54
2023/12/23 01:54:57;;;;;;;4.60;2.60;;;;;;;8.85;47.64;99255.37;107223;1256;25325;-54
2023/12/23 01:57:25;;;;;;;3.50;2.30;;;;;;;8.86;47.82;99251.89;107184;1264;25484;-54
2023/12/23 01:59:51;;;;;;;4.10;2.30;;;;;;;8.87;47.89;99250.30;107085;1255;25268;-54
2023/12/23 02:02:19;;;;;;;3.80;2.60;;;;;;;8.88;48.11;99251.45;107198;1257;23314;-54
2023/12/23 02:04:46;;;;;;;4.80;2.90;;;;;;;8.89;48.33;99252.94;106446;1265;25441;-53
2023/12/23 02:07:14;;;;;;;5.60;3.40;;;;;;;8.92;48.45;99252.52;106157;1261;582437;-54
2023/12/23 02:09:43;;;;;;;4.70;4.10;;;;;;;8.94;48.43;99247.94;106440;1262;25377;-54
2023/12/23 02:12:21;;;;;;;5.40;4.80;;;;;;;8.96;48.44;99243.00;106480;1264;25482;-53
2023/12/23 02:15:03;;;;;;;8.60;6.10;;;;;;;8.97;48.39;99244.70;106412;1276;25495;-53
2023/12/23 02:17:30;;;;;;;6.90;5.40;;;;;;;9.00;48.37;99242.86;106500;1263;22543;-54
2023/12/23 02:19:57;;;;;;;6.20;5.60;;;;;;;9.02;48.20;99245.71;106391;1264;25390;-54
2023/12/23 02:22:24;;;;;;;3.50;3.20;;;;;;;9.03;48.03;99243.06;106440;1265;25492;-54
2023/12/23 02:24:51;;;;;;;4.70;3.30;;;;;;;9.05;47.94;99242.48;106166;1267;25376;-53
2023/12/23 02:27:20;;;;;;;6.60;5.80;;;;;;;9.07;47.89;99240.85;106338;1272;25356;-54
2023/12/23 02:29:47;;;;;;;4.60;4.10;;;;;;;9.09;47.93;99236.61;106418;1265;22762;-54
2023/12/23 02:32:14;;;;;;;4.90;3.20;;;;;;;9.11;47.89;99235.31;106349;1267;25353;-54
2023/12/23 02:34:41;;;;;;;4.10;2.70;;;;;;;9.13;47.98;99226.77;106331;1267;25492;-54
2023/12/23 02:37:09;;;;;;;4.30;2.70;;;;;;;9.15;48.07;99221.31;106774;1265;25360;-54
2023/12/23 02:39:36;;;;;;;3.40;2.50;;;;;;;9.16;47.89;99220.05;106772;1255;25315;-55
2023/12/23 02:42:04;;;;;;;3.90;2.90;;;;;;;9.17;47.79;99210.86;106782;1268;25289;-54
2023/12/23 02:44:31;;;;;;;4.60;2.50;;;;;;;9.18;47.72;99210.46;107084;1265;22525;-54
2023/12/23 02:46:58;;;;;;;3.50;2.60;;;;;;;9.19;47.63;99208.00;106306;1257;1003532;-54
2023/12/23 02:49:25;;;;;;;4.30;2.50;;;;;;;9.20;47.49;99206.08;107055;1256;25411;-54
2023/12/23 02:51:52;;;;;;;3.30;2.50;;;;;;;9.20;47.44;99203.63;107139;1257;25357;-54
2023/12/23 02:54:19;;;;;;;3.80;2.80;;;;;;;9.21;47.38;99202.39;106396;1256;1003449;-54
2023/12/23 02:56:46;;;;;;;4.50;3.10;;;;;;;9.21;47.13;99206.35;107023;1257;25363;-53
2023/12/23 02:59:13;;;;;;;5.70;3.00;;;;;;;9.21;47.11;99209.46;107079;1264;25334;-53
2023/12/23 03:01:40;;;;;;;4.50;3.10;;;;;;;9.21;47.10;99210.85;106330;1257;1002508;-54
2023/12/23 03:04:07;;;;;;;5.50;3.60;;;;;;;9.21;47.10;99207.58;107081;1264;25344;-53
2023/12/23 03:06:34;;;;;;;5.50;3.50;;;;;;;9.19;47.03;99205.05;106432;1257;1003649;-53
2023/12/23 03:09:01;;;;;;;5.00;3.60;;;;;;;9.18;46.95;99207.70;107101;1264;25325;-54
2023/12/23 03:11:28;;;;;;;6.40;3.70;;;;;;;9.16;47.05;99197.73;107193;1261;25437;-54
2023/12/23 03:13:55;;;;;;;4.20;3.20;;;;;;;9.15;47.10;99199.00;106354;1257;1003742;-54
2023/12/23 03:16:22;;;;;;;4.70;3.20;;;;;;;9.14;46.96;99204.59;107012;1257;25318;-54
2023/12/23 03:18:49;;;;;;;4.70;3.70;;;;;;;9.14;46.92;99199.90;106867;1275;25410;-54
2023/12/23 03:21:19;;;;;;;6.70;3.50;;;;;;;9.14;46.87;99199.05;107049;1263;25325;-54
2023/12/23 03:23:46;;;;;;;6.40;3.60;;;;;;;9.14;46.80;99195.77;107143;1258;25328;-53
2023/12/23 03:26:13;;;;;;;5.50;3.70;;;;;;;9.15;46.90;99186.73;107139;1257;24186;-53
2023/12/23 03:28:40;;;;;;;5.40;3.30;;;;;;;9.16;46.91;99180.13;106781;1262;25411;-53
2023/12/23 03:31:07;;;;;;;5.80;3.70;;;;;;;9.16;46.88;99174.74;106831;1274;25338;-53
2023/12/23 03:33:34;;;;;;;5.90;3.70;;;;;;;9.16;46.84;99166.08;107135;1257;25396;-53
2023/12/23 03:36:02;;;;;;;7.50;3.80;;;;;;;9.16;46.74;99157.96;106158;1272;1003047;-54
2023/12/23 03:38:29;;;;;;;5.10;3.90;;;;;;;9.17;46.70;99147.16;106436;1259;1003516;-53
2023/12/23 03:40:56;;;;;;;5.40;3.90;;;;;;;9.17;46.69;99143.87;106847;1260;25328;-53
2023/12/23 03:43:24;;;;;;;4.90;3.50;;;;;;;9.17;46.63;99155.48;106823;1260;25349;-53
2023/12/23 03:45:51;;;;;;;4.40;3.80;;;;;;;9.16;46.68;99168.49;107169;1256;25383;-53
2023/12/23 03:48:18;;;;;;;5.30;3.90;;;;;;;9.13;46.61;99169.86;106345;1256;1003047;-53
2023/12/23 03:50:45;;;;;;;6.50;4.00;;;;;;;9.10;46.56;99164.44;107031;1257;25322;-53
2023/12/23 03:53:14;;;;;;;5.60;4.00;;;;;;;9.08;46.58;99159.86;106901;1259;25356;-55
2023/12/23 03:55:41;;;;;;;4.50;3.60;;;;;;;9.05;46.56;99159.48;106144;1260;1003481;-54
2023/12/23 03:58:08;;;;;;;7.80;4.40;;;;;;;9.03;46.70;99162.48;107220;1257;25411;-54
2023/12/23 04:00:35;;;;;;;4.70;3.40;;;;;;;9.01;46.50;99172.07;106797;1259;25484;-54
2023/12/23 04:03:03;;;;;;;5.20;3.70;;;;;;;8.99;46.37;99186.68;106736;1274;25362;-55
2023/12/23 04:05:30;;;;;;;5.00;3.50;;;;;;;8.99;46.23;99201.92;106994;1256;25363;-54
2023/12/23 04:07:57;;;;;;;6.30;4.30;;;;;;;8.97;46.14;99212.17;107078;1260;25356;-54
2023/12/23 04:10:24;;;;;;;5.00;3.10;;;;;;;8.96;45.94;99226.56;106615;1275;25484;-54
2023/12/23 04:12:51;;;;;;;5.50;2.90;;;;;;;8.96;45.94;99237.15;106837;1272;25356;-54
2023/12/23 04:15:19;;;;;;;3.10;2.80;;;;;;;8.95;45.77;99246.33;106912;1267;25414;-54
2023/12/23 04:17:46;;;;;;;3.80;2.80;;;;;;;8.94;45.68;99256.05;107113;1257;25337;-54
2023/12/23 04:20:13;;;;;;;5.60;3.30;;;;;;;8.93;45.86;99268.36;107079;1257;25487;-54
2023/12/23 04:22:44;;;;;;;4.40;3.00;;;;;;;8.93;45.84;99278.27;106421;1257;1003626;-54
2023/12/23 04:25:11;;;;;;;5.20;3.40;;;;;;;8.89;45.63;99285.64;106355;1263;1002861;-54
2023/12/23 04:27:39;;;;;;;4.10;2.70;;;;;;;8.86;45.72;99290.44;107076;1256;25484;-54
2023/12/23 04:30:07;;;;;;;4.40;2.80;;;;;;;8.83;45.60;99292.80;107197;1256;22526;-53
2023/12/23 04:32:35;;;;;;;3.50;3.00;;;;;;;8.81;45.67;99292.88;105805;1270;1002956;-53
2023/12/23 04:35:03;;;;;;;3.20;2.70;;;;;;;8.79;45.77;99294.85;107178;1260;25415;-53
2023/12/23 04:37:31;;;;;;;4.00;2.90;;;;;;;8.76;45.59;99301.52;106739;1263;22523;-53
2023/12/23 04:39:58;;;;;;;4.90;3.10;;;;;;;8.75;45.52;99310.39;106777;1266;25488;-53
2023/12/23 04:42:25;;;;;;;3.10;2.40;;;;;;;8.75;45.59;99312.48;107214;1257;25357;-54
2023/12/23 04:44:52;;;;;;;4.00;2.50;;;;;;;8.74;45.63;99304.20;107124;1257;25363;-53
2023/12/23 04:47:19;;;;;;;4.30;2.50;;;;;;;8.73;45.37;99307.70;107160;1261;25548;-53
2023/12/23 04:49:46;;;;;;;4.50;2.60;;;;;;;8.71;45.48;99314.18;107114;1257;25318;-53
2023/12/23 04:52:13;;;;;;;4.10;3.10;;;;;;;8.69;45.46;99312.33;107169;1257;25334;-53
2023/12/23 04:54:40;;;;;;;4.30;3.20;;;;;;;8.67;45.44;99305.52;106397;1257;1003745;-53
2023/12/23 04:57:07;;;;;;;2.30;2.10;;;;;;;8.56;45.68;99300.20;106964;1267;25401;-53
2023/12/23 04:59:34;;;;;;;4.00;2.30;;;;;;;8.57;45.57;99295.17;106828;1260;25494;-54
2023/12/23 05:02:02;;;;;;;4.40;2.70;;;;;;;8.56;45.60;99293.67;107077;1257;25284;-52
2023/12/23 05:04:29;;;;;;;4.40;2.80;;;;;;;8.54;45.61;99281.98;107007;1266;23854;-53
2023/12/23 05:06:59;;;;;;;3.60;2.30;;;;;;;8.51;45.80;99273.60;106945;1257;25346;-52
2023/12/23 05:09:26;;;;;;;2.40;2.00;;;;;;;8.49;45.56;99266.09;106184;1257;1003057;-53
2023/12/23 05:11:53;;;;;;;3.90;2.30;;;;;;;8.48;45.81;99261.83;106585;1268;25487;-52
2023/12/23 05:14:20;;;;;;;2.60;2.10;;;;;;;8.48;45.74;99258.36;106551;1263;25363;-53
2023/12/23 05:16:47;;;;;;;3.40;2.30;;;;;;;8.48;45.72;99247.48;106730;1271;25427;-53
2023/12/23 05:19:15;;;;;;;4.50;2.70;;;;;;;8.47;45.63;99233.66;106856;1269;25325;-53
2023/12/23 05:21:43;;;;;;;3.00;2.40;;;;;;;8.46;45.61;99223.17;106055;1270;1003816;-52
2023/12/23 05:24:10;;;;;;;3.60;2.60;;;;;;;8.45;45.36;99214.92;106804;1256;23870;-52
2023/12/23 05:26:37;;;;;;;3.20;2.40;;;;;;;8.43;45.52;99215.53;106819;1262;25427;-53
2023/12/23 05:29:05;;;;;;;2.30;2.10;;;;;;;8.40;45.36;99218.04;106860;1265;23307;-53
2023/12/23 05:31:34;;;;;;;4.60;2.40;;;;;;;8.37;45.48;99222.64;106686;1273;25315;-53
2023/12/23 05:34:01;;;;;;;3.90;2.30;;;;;;;8.34;45.54;99215.33;106722;1264;25509;-52
2023/12/23 05:36:28;;;;;;;2.90;2.20;;;;;;;8.30;45.55;99215.66;106697;1273;25347;-52
2023/12/23 05:38:55;;;;;;;3.30;2.10;;;;;;;8.27;45.54;99215.77;106885;1269;25363;-53
2023/12/23 05:41:22;;;;;;;5.10;2.70;;;;;;;8.23;45.60;99218.81;106700;1268;25430;-52
2023/12/23 05:43:50;;;;;;;7.70;2.00;;;;;;;8.19;45.57;99209.96;106965;1269;25319;-52
2023/12/23 05:46:17;;;;;;;3.90;1.90;;;;;;;8.17;45.59;99213.67;107076;1257;25414;-52
2023/12/23 05:48:44;;;;;;;3.70;2.20;;;;;;;8.15;45.73;99230.49;107050;1262;25324;-52
2023/12/23 05:51:11;;;;;;;5.00;2.80;;;;;;;8.13;45.71;99242.13;107079;1263;25411;-53
2023/12/23 05:53:38;;;;;;;3.00;2.20;;;;;;;8.12;45.85;99253.92;107040;1257;25321;-53
2023/12/23 05:56:06;;;;;;;3.20;2.30;;;;;;;8.12;46.02;99260.13;107161;1264;25316;-54
2023/12/23 05:58:33;;;;;;;4.40;2.20;;;;;;;8.12;46.05;99270.67;107161;1263;25265;-54
2023/12/23 06:01:00;;;;;;;2.80;2.20;;;;;;;8.10;46.02;99281.43;106922;1267;25318;-53
2023/12/23 06:03:28;;;;;;;3.30;2.70;;;;;;;8.09;46.13;99281.48;107032;1257;25340;-53
2023/12/23 06:05:55;;;;;;;3.00;2.00;;;;;;;8.08;46.25;99287.90;106326;1266;1003764;-53
2023/12/23 06:08:23;;;;;;;3.80;2.10;;;;;;;8.08;46.18;99286.01;107050;1257;25319;-53
2023/12/23 06:10:50;;;;;;;2.80;2.10;;;;;;;8.08;46.18;99284.46;107175;1267;25356;-54
2023/12/23 06:13:25;;;;;;;4.20;2.60;;;;;;;8.07;46.33;99275.86;107069;1266;22530;-54
2023/12/23 06:15:52;;;;;;;3.00;2.20;;;;;;;8.07;46.31;99268.96;107136;1256;25452;-54
2023/12/23 06:18:19;;;;;;;3.60;2.60;;;;;;;8.08;46.32;99270.30;107109;1257;25366;-54
2023/12/23 06:20:46;;;;;;;4.20;2.40;;;;;;;8.10;46.11;99270.41;106869;1260;25787;-53
2023/12/23 06:23:13;;;;;;;3.20;2.30;;;;;;;8.11;46.27;99269.83;107109;1264;25347;-53
2023/12/23 06:25:41;;;;;;;3.20;2.60;;;;;;;8.14;46.30;99262.98;106305;1257;1003191;-53
2023/12/23 06:28:08;;;;;;;4.80;2.90;;;;;;;8.17;46.40;99256.83;107097;1267;25328;-53
2023/12/23 06:30:35;;;;;;;7.80;3.40;;;;;;;8.21;46.25;99252.05;106345;1263;1003562;-53
2023/12/23 06:33:02;;;;;;;3.20;2.20;;;;;;;8.24;46.22;99262.98;107178;1266;25356;-54
2023/12/23 06:35:30;;;;;;;4.10;2.80;;;;;;;8.28;45.98;99260.83;106673;1276;22629;-53
2023/12/23 06:37:57;;;;;;;3.20;2.40;;;;;;;8.29;45.96;99261.46;106494;1264;25488;-53
2023/12/23 06:40:24;;;;;;;3.50;2.70;;;;;;;8.30;46.03;99264.73;105969;1270;1002895;-53
2023/12/23 06:42:51;;;;;;;3.40;2.80;;;;;;;8.29;46.01;99266.13;106782;1262;25487;-53
2023/12/23 06:45:18;;;;;;;4.60;2.40;;;;;;;8.30;46.03;99271.11;105793;1272;1003463;-53
2023/12/23 06:47:45;;;;;;;4.70;2.90;;;;;;;8.29;45.89;99273.73;106701;1260;25610;-53
2023/12/23 06:50:12;;;;;;;3.10;2.40;;;;;;;8.28;45.74;99281.88;106755;1260;22659;-53
2023/12/23 06:52:41;;;;;;;4.50;2.50;;;;;;;8.28;45.77;99294.16;105968;1264;1015280;-53
2023/12/23 06:55:08;;;;;;;3.90;2.40;;;;;;;8.27;45.88;99307.31;106711;1272;25373;-55
2023/12/23 06:57:35;;;;;;;5.50;3.20;;;;;;;8.28;46.11;99317.15;105983;1267;1003016;-53
2023/12/23 07:00:07;;;;;;;7.10;4.20;;;;;;;8.31;46.21;99326.70;106803;1271;25350;-53
2023/12/23 07:02:34;;;;;;;3.60;2.60;;;;;;;8.36;46.35;99332.77;106718;1265;24396;-53
2023/12/23 07:05:01;;;;;;;14.40;8.40;;;;;;;8.43;46.39;99342.88;106661;1257;25328;-53
2023/12/23 07:07:28;;;;;;;10.60;6.50;;;;;;;8.51;46.41;99343.11;107021;1264;25337;-54
2023/12/23 07:09:57;;;;;;;5.70;3.40;;;;;;;8.59;46.10;99329.84;107156;1263;25445;-54
2023/12/23 07:12:33;;;;;;;5.20;2.90;;;;;;;8.67;46.01;99330.75;106410;1257;1003231;-54
2023/12/23 07:15:03;;;;;;;6.90;3.10;;;;;;;8.73;45.98;99334.83;107098;1264;25356;-54
2023/12/23 07:17:30;;;;;;;4.00;2.50;;;;;;;8.81;45.86;99348.73;107083;1264;22538;-54
2023/12/23 07:20:11;;;;;;;3.90;2.60;;;;;;;8.88;45.69;99365.23;106321;1257;1002908;-53
2023/12/23 07:22:38;;;;;;;5.60;2.80;;;;;;;8.94;45.64;99382.83;106206;1267;1003635;-53
2023/12/23 07:25:06;;;;;;;4.40;2.30;;;;;;;8.96;45.38;99401.40;107116;1264;25395;-53
2023/12/23 07:27:33;;;;;;;3.60;2.40;;;;;;;8.98;45.12;99418.66;106440;1257;1003449;-54
2023/12/23 07:30:00;;;;;;;4.30;2.60;;;;;;;8.97;45.02;99411.95;107110;1257;25469;-53
2023/12/23 07:32:27;;;;;;;3.40;2.60;;;;;;;8.94;44.95;99398.39;107294;1256;23152;-53
2023/12/23 07:34:54;;;;;;;3.90;2.60;;;;;;;8.90;45.06;99397.15;106490;1257;1002585;-53
2023/12/23 07:37:21;;;;;;;5.00;2.50;;;;;;;8.87;45.06;99403.83;107038;1260;25318;-53
2023/12/23 07:39:48;;;;;;;3.80;2.70;;;;;;;8.85;45.08;99415.50;107142;1258;25318;-54
2023/12/23 07:42:15;;;;;;;3.30;2.10;;;;;;;8.84;45.18;99406.73;107064;1267;25344;-55
2023/12/23 07:44:42;;;;;;;5.40;2.10;;;;;;;8.83;45.28;99416.95;107072;1251;22541;-53
2023/12/23 07:47:12;;;;;;;2.80;2.20;;;;;;;8.84;45.26;99423.14;107080;1257;25344;-53
2023/12/23 07:49:39;;;;;;;3.60;2.10;;;;;;;8.86;45.26;99427.73;106843;1259;25469;-53
2023/12/23 07:52:07;;;;;;;4.50;2.20;;;;;;;8.88;45.28;99436.64;106941;1272;25343;-53
2023/12/23 07:54:34;;;;;;;3.20;1.80;;;;;;;8.90;45.37;99443.33;106874;1258;25561;-53
2023/12/23 07:57:01;;;;;;;2.80;1.80;;;;;;;8.92;45.26;99443.60;107086;1254;22555;-54
2023/12/23 07:59:29;;;;;;;3.20;1.70;;;;;;;8.93;45.24;99438.52;106630;1264;1003783;-53
2023/12/23 08:01:56;;;;;;;3.00;1.80;;;;;;;8.94;45.16;99442.48;106354;1256;1003532;-53
2023/12/23 08:04:23;;;;;;;2.90;1.60;;;;;;;8.94;45.09;99440.09;107168;1251;25357;-53
2023/12/23 08:06:51;;;;;;;3.80;2.00;;;;;;;8.94;45.20;99442.34;106102;1267;1003294;-55
2023/12/23 08:09:18;;;;;;;3.00;1.70;;;;;;;8.92;45.25;99444.29;106926;1260;25343;-53
2023/12/23 08:11:45;;;;;;;2.20;1.80;;;;;;;8.92;45.40;99439.64;106948;1266;25414;-53
2023/12/23 08:14:12;;;;;;;5.30;2.60;;;;;;;8.92;45.37;99447.08;106872;1267;25356;-53
2023/12/23 08:16:39;;;;;;;2.60;2.00;;;;;;;8.92;45.50;99448.27;106833;1267;25487;-53
2023/12/23 08:19:06;;;;;;;3.10;2.00;;;;;;;8.93;45.49;99443.57;107048;1263;25363;-53
2023/12/23 08:21:33;;;;;;;2.60;1.80;;;;;;;8.95;45.52;99441.92;106404;1257;1003690;-54
2023/12/23 08:24:03;;;;;;;4.00;2.40;;;;;;;8.98;45.50;99437.66;106726;1274;25327;-53
2023/12/23 08:26:30;;;;;;;2.40;1.90;;;;;;;9.02;45.60;99441.01;107135;1254;22523;-53
2023/12/23 08:28:58;;;;;;;2.40;1.60;;;;;;;9.05;45.46;99445.39;106813;1273;25340;-54
2023/12/23 08:31:25;;;;;;;2.70;1.80;;;;;;;9.08;45.45;99451.30;106910;1270;25411;-54
2023/12/23 08:33:52;;;;;;;2.20;1.70;;;;;;;9.12;45.39;99449.26;106959;1255;25328;-54
2023/12/23 08:36:19;;;;;;;2.20;1.30;;;;;;;9.15;45.43;99441.54;107152;1257;25405;-55
2023/12/23 08:38:46;;;;;;;2.50;1.50;;;;;;;9.17;45.29;99440.27;107120;1255;24357;-55
2023/12/23 08:41:13;;;;;;;2.40;1.50;;;;;;;9.16;45.21;99445.14;107144;1264;25328;-54
2023/12/23 08:43:40;;;;;;;1.90;1.40;;;;;;;9.16;45.25;99440.98;106268;1258;1002986;-54
2023/12/23 08:46:08;;;;;;;1.90;1.40;;;;;;;9.17;45.23;99447.89;107091;1257;25347;-54
2023/12/23 08:48:35;;;;;;;2.30;1.40;;;;;;;9.16;45.42;99439.77;107080;1267;25396;-55
2023/12/23 08:51:02;;;;;;;3.70;1.70;;;;;;;9.17;45.43;99432.83;106988;1257;22626;-53
2023/12/23 08:53:29;;;;;;;3.30;1.80;;;;;;;9.19;45.40;99433.10;107115;1266;25484;-54
2023/12/23 08:55:56;;;;;;;2.80;1.70;;;;;;;9.20;45.33;99435.80;107090;1258;25343;-54
2023/12/23 08:58:25;;;;;;;3.70;1.50;;;;;;;9.23;45.36;99437.45;107115;1258;25318;-54
2023/12/23 09:00:52;;;;;;;2.10;1.50;;;;;;;9.26;45.22;99429.73;106766;1261;25347;-54
2023/12/23 09:03:19;;;;;;;1.60;1.10;;;;;;;9.29;45.16;99421.30;106778;1260;25319;-54
2023/12/23 09:05:47;;;;;;;1.30;1.00;;;;;;;9.32;45.13;99412.71;107165;1257;25325;-54
2023/12/23 09:08:14;;;;;;;1.70;1.40;;;;;;;9.35;45.13;99405.82;107154;1267;25488;-54
2023/12/23 09:10:41;;;;;;;2.90;2.20;;;;;;;9.38;44.91;99398.79;107174;1263;25344;-54
2023/12/23 09:13:09;;;;;;;5.90;2.10;;;;;;;9.39;44.62;99393.71;107040;1257;25478;-54
2023/12/23 09:15:37;;;;;;;4.40;2.50;;;;;;;9.42;44.50;99392.23;106413;1261;1003682;-54
2023/12/23 09:18:04;;;;;;;2.50;1.80;;;;;;;9.43;44.75;99388.58;106976;1272;25328;-54
2023/12/23 09:20:32;;;;;;;4.40;2.30;;;;;;;9.44;44.54;99384.38;106798;1257;24336;-54
2023/12/23 09:22:59;;;;;;;2.90;2.00;;;;;;;9.45;44.83;99371.36;107137;1256;25439;-54
2023/12/23 09:25:26;;;;;;;4.10;1.70;;;;;;;9.47;44.86;99360.02;106923;1261;25334;-54
2023/12/23 09:27:53;;;;;;;2.60;1.60;;;;;;;9.49;44.82;99349.34;107250;1255;25498;-54
2023/12/23 09:30:20;;;;;;;3.50;1.90;;;;;;;9.54;44.90;99335.85;106432;1261;25321;-54
2023/12/23 09:32:47;;;;;;;2.50;1.70;;;;;;;9.59;44.79;99326.14;107012;1258;25495;-54
2023/12/23 09:35:14;;;;;;;3.10;1.80;;;;;;;9.64;44.68;99319.69;106846;1267;25365;-54
2023/12/23 09:37:41;;;;;;;4.50;2.80;;;;;;;9.69;44.76;99327.27;106835;1270;25362;-54
2023/12/23 09:40:10;;;;;;;7.00;3.90;;;;;;;9.75;44.69;99324.26;106363;1258;1003496;-54
2023/12/23 09:42:37;;;;;;;9.50;4.60;;;;;;;9.81;44.63;99324.86;107048;1267;25459;-54
2023/12/23 09:45:05;;;;;;;6.60;5.10;;;;;;;9.87;44.56;99325.50;106387;1264;1003099;-54
2023/12/23 09:47:32;;;;;;;7.00;5.30;;;;;;;9.92;44.39;99339.69;106071;1256;1003624;-56
2023/12/23 09:50:00;;;;;;;5.00;3.70;;;;;;;9.94;44.27;99365.74;107104;1253;25418;-54
2023/12/23 09:52:29;;;;;;;4.90;2.80;;;;;;;9.95;44.32;99381.46;107179;1255;25362;-54
2023/12/23 09:54:57;;;;;;;6.30;2.80;;;;;;;9.96;44.25;99383.86;106438;1257;1002995;-54
2023/12/23 09:57:24;;;;;;;5.70;3.90;;;;;;;9.95;44.15;99376.10;106923;1260;25795;-54
2023/12/23 09:59:52;;;;;;;6.60;4.60;;;;;;;9.94;44.05;99363.34;107047;1253;25325;-54
2023/12/23 10:02:19;;;;;;;7.10;5.50;;;;;;;9.91;44.20;99357.89;107136;1260;25372;-54
2023/12/23 10:04:46;;;;;;;4.10;3.50;;;;;;;9.91;44.28;99348.91;107057;1266;25328;-54
2023/12/23 10:07:15;;;;;;;6.10;3.80;;;;;;;9.91;44.36;99343.71;107010;1264;24240;-54
2023/12/23 10:09:42;;;;;;;6.80;3.70;;;;;;;9.93;44.31;99356.09;107110;1256;22532;-54
2023/12/23 10:12:09;;;;;;;3.50;2.50;;;;;;;9.90;44.49;99374.04;107182;1257;25496;-54
2023/12/23 10:14:41;;;;;;;4.30;2.80;;;;;;;9.83;44.76;99382.81;107195;1251;25392;-53
2023/12/23 10:17:07;;;;;;;;;;;;;;;9.83;44.78;99385.58;106072;1270;1003525;-54
2023/12/23 10:19:34;;;;;;;4.30;2.90;;;;;;;9.85;44.83;99383.07;106346;1258;1003626;-54
2023/12/23 10:22:02;;;;;;;2.80;2.00;;;;;;;9.87;45.09;99382.65;107173;1263;25328;-54
2023/12/23 10:24:31;;;;;;;3.10;2.40;;;;;;;9.99;45.05;99380.77;107156;1257;25356;-54
2023/12/23 10:26:58;;;;;;;3.70;2.10;;;;;;;10.03;45.04;99375.93;106782;1261;25478;-54
2023/12/23 10:29:26;;;;;;;4.00;2.40;;;;;;;10.05;45.10;99367.70;106945;1254;25344;-54
2023/12/23 10:31:55;;;;;;;3.10;1.60;;;;;;;10.07;45.10;99362.57;106898;1267;25487;-54
2023/12/23 10:34:22;;;;;;;3.10;2.10;;;;;;;10.11;45.09;99363.49;107192;1251;22578;-55
2023/12/23 10:36:49;;;;;;;2.30;1.50;;;;;;;10.16;44.83;99362.42;106835;1257;25372;-54
2023/12/23 10:39:21;;;;;;;2.50;1.50;;;;;;;10.21;44.58;99357.02;107129;1267;25353;-54
2023/12/23 10:42:03;;;;;;;3.80;2.40;;;;;;;10.26;44.37;99353.50;106359;1257;1002870;-54
2023/12/23 10:44:30;;;;;;;3.70;2.20;;;;;;;10.30;44.18;99351.92;107100;1250;22634;-54
2023/12/23 10:46:57;;;;;;;4.10;2.30;;;;;;;10.33;44.14;99355.80;106998;1269;25319;-54
2023/12/23 10:49:25;;;;;;;3.40;2.10;;;;;;;10.34;44.06;99354.55;106237;1257;1002939;-54
2023/12/23 10:51:54;;;;;;;2.70;1.80;;;;;;;10.34;43.99;99352.12;107072;1266;25369;-54
2023/12/23 10:54:24;;;;;;;4.90;1.80;;;;;;;10.33;43.99;99344.16;106880;1260;25382;-54
2023/12/23 10:56:52;;;;;;;3.10;1.80;;;;;;;10.33;43.93;99340.17;107101;1257;25232;-55
2023/12/23 10:59:19;;;;;;;3.30;1.50;;;;;;;10.33;43.94;99339.52;107137;1266;22526;-54
2023/12/23 11:01:46;;;;;;;4.20;2.10;;;;;;;10.31;44.06;99338.54;106799;1262;25411;-53
2023/12/23 11:04:13;;;;;;;1.60;1.20;;;;;;;10.29;44.07;99337.06;106786;1260;25492;-54
2023/12/23 11:06:43;;;;;;;2.00;1.30;;;;;;;10.27;44.13;99335.42;106301;1258;1002931;-54
2023/12/23 11:09:11;;;;;;;2.40;1.50;;;;;;;10.26;43.96;99329.92;107068;1258;22527;-53
2023/12/23 11:11:38;;;;;;;2.50;1.20;;;;;;;10.24;44.10;99326.52;106377;1254;1003808;-53
2023/12/23 11:14:07;;;;;;;2.40;1.60;;;;;;;10.24;44.09;99333.48;106963;1258;25337;-53
2023/12/23 11:16:34;;;;;;;1.60;1.30;;;;;;;10.24;44.09;99334.52;107102;1257;25351;-53
2023/12/23 11:19:04;;;;;;;2.40;1.40;;;;;;;10.24;44.10;99333.84;107198;1257;22805;-53
2023/12/23 11:21:34;;;;;;;3.00;1.90;;;;;;;10.23;43.84;99333.86;106865;1261;25474;-53
2023/12/23 11:24:02;;;;;;;2.80;1.80;;;;;;;10.20;43.94;99341.27;107156;1261;25415;-53
2023/12/23 11:26:39;;;;;;;4.30;2.10;;;;;;;10.17;44.10;99341.27;106790;1267;25505;-53
2023/12/23 11:29:08;;;;;;;3.10;2.00;;;;;;;10.13;44.21;99349.57;106545;1257;1004065;-53
2023/12/23 11:31:35;;;;;;;2.60;1.60;;;;;;;10.07;44.28;99355.14;107020;1257;25342;-54